Time;durP1;ratioP1;P1;durP2;ratioP2;P2;SDS_P1;SDS_P2;PMS_P1;PMS_P2;Temp;Humidity;BMP_temperature;BMP_pressure;BME280_temperature;BME280_humidity;BME280_pressure;Samples;Min_cycle;Max_cycle;Signal;HPM_P1;HPM_P2
2022/09/26 00:08:12;;;;;;;56.50;39.80;;;;;;;9.09;82.48;97871.55;434020;1266;99220;-39
2022/09/26 00:18:19;;;;;;;58.10;39.30;;;;;;;9.03;82.78;97865.50;434153;1266;109089;-40
2022/09/26 00:28:27;;;;;;;53.30;38.70;;;;;;;9.01;82.93;97846.42;433993;1266;98001;-39
2022/09/26 00:38:35;;;;;;;61.50;37.70;;;;;;;9.02;83.20;97836.06;434147;1266;112388;-41
2022/09/26 00:48:45;;;;;;;50.60;37.00;;;;;;;9.10;83.48;97827.90;433940;1266;108182;-40
2022/09/26 00:58:54;;;;;;;52.60;37.90;;;;;;;9.20;83.44;97819.97;434185;1266;99258;-40
2022/09/26 01:09:05;;;;;;;55.60;36.40;;;;;;;9.32;83.52;97809.56;434077;1267;108811;-39
2022/09/26 01:19:15;;;;;;;50.40;35.10;;;;;;;9.45;83.60;97800.72;434592;1267;98889;-39
2022/09/26 01:29:56;;;;;;;51.90;37.00;;;;;;;9.47;83.45;97795.77;434117;1266;112430;-39
2022/09/26 01:40:03;;;;;;;51.70;37.30;;;;;;;9.42;83.57;97800.14;434913;1254;108838;-39
2022/09/26 01:50:15;;;;;;;51.40;34.40;;;;;;;9.40;83.77;97790.99;433965;1268;98840;-40
2022/09/26 02:00:22;;;;;;;54.00;37.40;;;;;;;9.42;84.07;97780.73;434128;1266;109141;-39
2022/09/26 02:10:32;;;;;;;46.30;34.80;;;;;;;9.56;84.40;97774.92;434249;1266;99225;-39
2022/09/26 02:20:44;;;;;;;43.70;31.50;;;;;;;9.73;84.25;97761.04;434228;1266;112016;-39
2022/09/26 02:30:54;;;;;;;47.30;33.30;;;;;;;9.71;84.04;97766.89;433751;1266;108904;-39
2022/09/26 02:51:14;;;;;;;45.70;32.60;;;;;;;9.63;84.38;97759.80;434193;1265;109874;-40
2022/09/26 03:01:21;;;;;;;51.40;32.10;;;;;;;9.73;84.70;97754.09;433346;1266;99483;-40
2022/09/26 03:11:30;;;;;;;42.80;32.40;;;;;;;9.83;84.53;97742.05;434024;1266;112420;-40
2022/09/26 03:21:37;;;;;;;44.00;32.90;;;;;;;9.86;84.68;97732.73;433754;1266;108867;-40
2022/09/26 03:31:45;;;;;;;44.80;32.80;;;;;;;9.90;84.76;97728.64;434210;1266;99249;-40
2022/09/26 03:51:58;;;;;;;43.50;33.80;;;;;;;9.75;84.65;97701.95;433961;1266;99528;-40
2022/09/26 04:02:06;;;;;;;52.00;36.00;;;;;;;9.70;84.62;97694.80;434100;1268;112611;-40
2022/09/26 04:12:14;;;;;;;49.00;35.10;;;;;;;9.58;84.75;97690.22;434075;1266;107634;-40
2022/09/26 04:22:21;;;;;;;48.00;35.20;;;;;;;9.59;85.00;97687.44;434077;1267;99272;-38
2022/09/26 04:32:28;;;;;;;43.50;34.00;;;;;;;9.64;85.16;97676.13;433880;1266;109025;-38
2022/09/26 04:52:40;;;;;;;44.20;34.10;;;;;;;9.74;85.22;97676.90;434169;1266;112495;-41
2022/09/26 05:02:47;;;;;;;54.70;35.10;;;;;;;9.83;85.38;97671.29;434202;1266;107766;-39
2022/09/26 05:12:58;;;;;;;50.90;35.30;;;;;;;9.84;85.57;97668.13;434360;1266;98012;-39
2022/09/26 05:23:07;;;;;;;51.30;38.00;;;;;;;9.90;85.67;97669.55;434189;1266;108840;-39
2022/09/26 05:33:14;;;;;;;50.10;35.20;;;;;;;10.04;85.90;97665.42;434035;1266;99224;-39
2022/09/26 05:43:22;;;;;;;50.80;36.70;;;;;;;10.18;85.84;97659.44;434359;1266;110887;-40
2022/09/26 05:53:29;;;;;;;55.90;39.20;;;;;;;10.30;85.90;97655.08;434001;1267;108920;-41
2022/09/26 06:03:38;;;;;;;52.10;39.60;;;;;;;10.42;86.07;97657.20;434425;1266;97953;-40
2022/09/26 06:13:45;;;;;;;57.00;40.20;;;;;;;10.56;86.14;97660.09;434305;1268;107754;-40
2022/09/26 06:23:53;;;;;;;55.60;40.40;;;;;;;10.75;86.19;97661.14;433661;1268;225882;-41
2022/09/26 06:34:00;;;;;;;58.00;39.60;;;;;;;11.10;86.30;97654.33;433913;1266;112553;-40
2022/09/26 06:44:07;;;;;;;52.80;39.60;;;;;;;11.60;86.24;97655.92;433782;1266;107747;-39
2022/09/26 06:54:15;;;;;;;61.20;44.70;;;;;;;11.91;85.91;97649.36;434233;1266;99251;-39
2022/09/26 07:04:26;;;;;;;57.00;41.60;;;;;;;12.49;85.95;97645.02;434189;1266;108812;-39
2022/09/26 07:14:33;;;;;;;45.50;33.40;;;;;;;13.49;86.04;97659.44;433848;1268;99272;-39
2022/09/26 07:24:41;;;;;;;58.50;36.00;;;;;;;13.80;85.24;97663.88;434041;1267;112434;-40
2022/09/26 07:34:49;;;;;;;45.90;34.60;;;;;;;13.74;84.98;97655.04;434117;1268;108918;-39
2022/09/26 07:44:56;;;;;;;45.00;35.70;;;;;;;13.99;85.07;97657.02;433992;1268;99223;-39
2022/09/26 07:55:27;;;;;;;42.60;31.90;;;;;;;14.57;84.51;97651.48;434062;1267;109028;-40
2022/09/26 08:05:35;;;;;;;40.00;32.30;;;;;;;15.25;84.78;97638.56;434450;1267;99225;-40
2022/09/26 08:15:41;;;;;;;44.70;33.70;;;;;;;15.38;83.27;97635.08;433622;1266;111955;-41
2022/09/26 08:25:48;;;;;;;36.60;30.20;;;;;;;15.24;83.41;97635.23;433824;1268;108848;-40
2022/09/26 08:35:55;;;;;;;35.70;30.10;;;;;;;15.67;82.79;97628.09;433999;1268;98048;-39
2022/09/26 08:56:29;;;;;;;33.40;25.20;;;;;;;15.78;81.89;97641.84;434222;1267;97979;-39
2022/09/26 09:06:37;;;;;;;27.00;21.80;;;;;;;15.44;81.21;97636.66;434141;1268;112576;-39
2022/09/26 09:16:50;;;;;;;27.20;21.40;;;;;;;15.58;81.19;97625.41;433839;1266;108628;-40
2022/09/26 09:27:01;;;;;;;28.30;20.60;;;;;;;15.92;81.00;97619.59;433941;1267;99228;-40
2022/09/26 09:37:39;;;;;;;28.50;21.60;;;;;;;16.18;80.82;97612.46;434069;1268;109244;-39
2022/09/26 09:47:46;;;;;;;28.30;22.50;;;;;;;16.10;79.27;97617.17;434094;1268;99273;-40
2022/09/26 10:08:13;;;;;;;29.90;24.10;;;;;;;15.91;77.97;97614.20;433457;1266;108522;-41
2022/09/26 10:18:21;;;;;;;31.00;24.70;;;;;;;16.45;78.27;97606.98;434111;1267;99231;-41
2022/09/26 10:28:32;;;;;;;42.70;22.90;;;;;;;16.51;77.22;97607.41;433847;1268;108770;-40
2022/09/26 10:49:00;;;;;;;28.80;20.70;;;;;;;17.20;76.38;97586.42;434201;1268;112638;-40
2022/09/26 10:59:12;;;;;;;26.00;20.90;;;;;;;17.11;75.44;97580.18;433454;1267;108864;-39
2022/09/26 11:19:35;;;;;;;19.30;17.00;;;;;;;17.04;74.94;97560.20;434425;1266;108755;-39
2022/09/26 11:29:41;;;;;;;20.00;13.70;;;;;;;17.59;75.20;97557.29;434243;1266;99231;-40
2022/09/26 11:50:13;;;;;;;15.00;13.40;;;;;;;18.14;74.33;97549.57;433734;1265;108377;-42
2022/09/26 12:00:26;;;;;;;13.20;10.90;;;;;;;17.90;73.73;97543.45;434194;1267;99226;-41
2022/09/26 12:10:32;;;;;;;15.60;14.00;;;;;;;17.72;73.51;97531.52;434098;1267;107779;-40
2022/09/26 12:30:50;;;;;;;11.50;9.80;;;;;;;17.88;73.46;97518.27;433989;1267;112555;-41
2022/09/26 12:41:10;;;;;;;20.20;10.90;;;;;;;18.06;73.25;97523.33;434012;1266;108673;-40
2022/09/26 13:01:32;;;;;;;17.70;15.80;;;;;;;17.77;72.72;97515.69;433609;1268;108686;-41
2022/09/26 13:11:37;;;;;;;18.90;14.40;;;;;;;17.57;72.70;97516.17;433865;1268;99257;-41
2022/09/26 13:21:46;;;;;;;17.10;13.30;;;;;;;17.25;72.74;97513.83;434122;1266;113120;-41
2022/09/26 13:42:04;;;;;;;21.30;14.80;;;;;;;16.63;73.89;97522.23;434278;1267;98042;-41
2022/09/26 13:52:21;;;;;;;17.00;15.20;;;;;;;16.06;73.81;97517.48;433999;1267;108853;-40
2022/09/26 14:02:30;;;;;;;17.70;12.90;;;;;;;15.65;74.26;97506.77;433783;1268;99222;-41
2022/09/26 14:12:53;;;;;;;10.90;9.00;;;;;;;15.46;74.81;97503.80;434031;1268;112570;-40
2022/09/26 14:33:13;;;;;;;11.00;8.00;;;;;;;14.59;75.19;97494.14;433927;1267;98830;-40
2022/09/26 14:43:23;;;;;;;11.60;8.30;;;;;;;14.35;75.47;97488.19;434133;1267;108666;-40
2022/09/26 14:53:29;;;;;;;14.40;10.20;;;;;;;14.22;75.98;97483.17;434230;1267;98856;-40
2022/09/26 15:03:37;;;;;;;16.60;11.20;;;;;;;14.35;76.75;97488.10;434329;1267;111921;-40
2022/09/26 15:13:45;;;;;;;16.10;12.50;;;;;;;14.46;76.99;97503.54;434092;1267;108705;-40
2022/09/26 15:23:55;;;;;;;19.80;14.40;;;;;;;14.36;77.24;97519.61;433857;1268;99276;-41
2022/09/26 15:34:10;;;;;;;17.00;13.70;;;;;;;14.23;77.27;97524.80;434166;1266;108884;-41
2022/09/26 15:44:22;;;;;;;12.70;11.30;;;;;;;14.08;77.43;97527.73;434079;1267;99278;-41
2022/09/26 15:54:30;;;;;;;16.10;11.70;;;;;;;13.96;77.86;97523.64;434173;1266;111154;-41
2022/09/26 16:04:53;;;;;;;19.60;14.60;;;;;;;13.90;78.20;97515.91;434140;1266;109320;-41
2022/09/26 16:25:24;;;;;;;21.30;15.40;;;;;;;13.50;78.89;97496.29;433805;1267;108379;-41
2022/09/26 16:35:34;;;;;;;28.30;18.60;;;;;;;13.50;79.43;97498.67;434326;1266;97991;-39
2022/09/26 16:45:45;;;;;;;31.90;21.30;;;;;;;13.45;79.71;97487.81;434005;1266;112426;-39
2022/09/26 16:55:53;;;;;;;27.90;19.70;;;;;;;13.31;79.78;97483.98;433962;1267;108847;-39
2022/09/26 17:06:01;;;;;;;22.50;18.40;;;;;;;13.25;80.14;97472.97;434309;1266;98805;-39
2022/09/26 17:16:09;;;;;;;49.60;33.10;;;;;;;13.14;80.29;97480.23;433997;1267;112510;-39
2022/09/26 17:26:16;;;;;;;52.30;35.80;;;;;;;13.07;80.59;97485.73;434174;1266;108841;-40
2022/09/26 17:36:26;;;;;;;73.70;46.00;;;;;;;13.04;80.78;97480.54;434139;1267;97976;-40
2022/09/26 17:56:41;;;;;;;78.20;48.50;;;;;;;12.56;80.87;97487.04;433771;1266;99217;-39
2022/09/26 18:06:47;;;;;;;70.90;49.10;;;;;;;12.29;80.86;97477.09;434126;1267;112190;-39
2022/09/26 18:16:54;;;;;;;70.80;50.30;;;;;;;12.06;80.87;97471.50;433874;1265;251140;-38
2022/09/26 18:27:06;;;;;;;74.20;52.40;;;;;;;11.88;81.02;97475.60;434062;1267;99231;-38
2022/09/26 18:37:13;;;;;;;78.80;56.30;;;;;;;11.68;81.19;97480.29;434571;1266;108761;-39
2022/09/26 18:47:20;;;;;;;81.30;58.10;;;;;;;11.60;81.52;97473.35;434181;1267;98965;-38
2022/09/26 19:07:53;;;;;;;119.10;65.40;;;;;;;11.61;81.82;97481.07;433952;1266;108886;-39
2022/09/26 19:18:00;;;;;;;78.10;53.70;;;;;;;11.37;81.94;97483.59;433995;1266;97994;-39
2022/09/26 19:28:09;;;;;;;73.40;50.50;;;;;;;11.25;82.01;97482.08;433999;1266;109364;-39
2022/09/26 19:38:17;;;;;;;74.40;51.50;;;;;;;11.11;82.21;97492.21;434076;1266;99252;-38
2022/09/26 19:48:24;;;;;;;81.60;53.30;;;;;;;10.92;82.22;97493.10;434196;1266;112094;-39
2022/09/26 19:58:31;;;;;;;88.90;56.40;;;;;;;10.76;82.27;97491.08;433598;1267;109071;-39
2022/09/26 20:08:39;;;;;;;81.60;53.70;;;;;;;10.49;82.24;97498.72;434094;1266;99175;-41
2022/09/26 20:18:47;;;;;;;75.40;50.80;;;;;;;10.39;82.62;97504.91;433805;1267;109019;-39
2022/09/26 20:28:54;;;;;;;70.30;48.00;;;;;;;10.25;82.54;97504.45;434218;1266;99257;-40
2022/09/26 20:39:03;;;;;;;72.10;46.70;;;;;;;10.05;82.63;97496.20;434126;1266;113173;-40
2022/09/26 20:49:19;;;;;;;62.30;43.20;;;;;;;9.92;82.73;97497.21;434064;1266;107717;-41
2022/09/26 20:59:28;;;;;;;58.20;36.40;;;;;;;9.87;83.00;97494.70;434228;1266;98630;-39
2022/09/26 21:09:35;;;;;;;43.50;30.20;;;;;;;9.83;83.07;97483.20;434188;1267;108782;-40
2022/09/26 21:19:42;;;;;;;50.70;31.70;;;;;;;9.69;83.17;97462.29;433955;1267;98805;-40
2022/09/26 21:29:49;;;;;;;47.40;31.60;;;;;;;9.63;83.41;97450.20;433983;1267;112444;-40
2022/09/26 21:39:57;;;;;;;43.20;29.50;;;;;;;9.71;83.57;97446.42;433820;1266;106983;-39
2022/09/26 22:00:14;;;;;;;52.60;33.40;;;;;;;9.36;83.35;97440.58;434165;1266;108768;-40
2022/09/26 22:10:20;;;;;;;47.20;27.70;;;;;;;9.27;83.65;97430.05;433980;1267;98803;-39
2022/09/26 22:20:26;;;;;;;40.60;27.10;;;;;;;9.14;83.41;97424.08;434240;1266;112160;-39
2022/09/26 22:30:32;;;;;;;29.30;21.80;;;;;;;9.00;83.53;97411.30;434276;1265;107975;-40
2022/09/26 22:40:39;;;;;;;30.30;21.90;;;;;;;8.84;83.49;97399.47;433801;1266;98831;-41
2022/09/26 22:50:47;;;;;;;37.60;24.40;;;;;;;8.68;83.68;97396.09;434482;1267;109401;-41
2022/09/26 23:00:54;;;;;;;32.60;23.00;;;;;;;8.49;83.71;97388.67;433781;1266;99258;-40
2022/09/26 23:11:02;;;;;;;36.60;23.60;;;;;;;8.46;84.14;97387.26;433884;1268;112748;-40
2022/09/26 23:21:11;;;;;;;35.30;22.10;;;;;;;8.43;84.13;97378.22;433895;1267;108969;-40
2022/09/26 23:31:18;;;;;;;31.80;21.20;;;;;;;8.38;84.25;97374.95;434339;1266;98064;-40
2022/09/26 23:41:26;;;;;;;34.80;22.60;;;;;;;8.38;84.14;97366.52;433947;1267;109102;-40
2022/09/26 23:51:33;;;;;;;39.20;27.60;;;;;;;8.20;84.17;97356.84;434400;1267;99234;-40
